createdAt,value
2022-09-13T00:00:27.944Z,1.30
2022-09-13T00:03:30.590Z,1.10
2022-09-13T00:06:32.818Z,1.15
2022-09-13T00:09:34.948Z,0.95
2022-09-13T00:12:37.175Z,1.38
2022-09-13T00:15:52.206Z,0.90
2022-09-13T00:18:55.130Z,1.20
2022-09-13T00:21:57.318Z,1.00
2022-09-13T00:24:59.522Z,1.00
2022-09-13T00:28:02.002Z,1.00
2022-09-13T00:31:06.856Z,1.20
2022-09-13T00:34:08.963Z,1.00
2022-09-13T00:37:11.127Z,0.90
2022-09-13T00:40:13.323Z,1.10
2022-09-13T00:43:21.245Z,1.00
2022-09-13T00:46:44.587Z,1.20
2022-09-13T00:49:48.227Z,1.00
2022-09-13T00:52:56.024Z,1.42
2022-09-13T00:56:06.592Z,1.17
2022-09-13T00:59:15.795Z,1.08
2022-09-13T01:02:18.236Z,0.80
2022-09-13T01:05:24.936Z,0.93
2022-09-13T01:08:29.493Z,1.00
2022-09-13T01:12:00.763Z,1.02
2022-09-13T01:15:05.791Z,0.90
2022-09-13T01:18:09.258Z,1.02
2022-09-13T01:21:30.302Z,1.00
2022-09-13T01:24:54.154Z,1.17
2022-09-13T01:28:05.231Z,1.35
2022-09-13T01:31:38.180Z,1.00
2022-09-13T01:35:11.565Z,0.75
2022-09-13T01:38:16.763Z,1.00
2022-09-13T01:41:42.932Z,1.00
2022-09-13T01:44:54.395Z,1.05
2022-09-13T01:48:03.710Z,1.02
2022-09-13T01:51:18.770Z,0.90
2022-09-13T01:54:43.746Z,0.70
2022-09-13T01:58:01.819Z,0.90
2022-09-13T02:01:08.471Z,0.90
2022-09-13T02:04:18.000Z,1.00
2022-09-13T02:07:26.493Z,1.10
2022-09-13T02:10:34.348Z,1.25
2022-09-13T02:13:46.595Z,0.80
2022-09-13T02:17:04.205Z,0.90
2022-09-13T02:20:16.570Z,0.93
2022-09-13T02:23:32.559Z,1.00
2022-09-13T02:26:37.775Z,0.90
2022-09-13T02:29:42.865Z,0.98
2022-09-13T02:33:24.165Z,0.90
2022-09-13T02:36:38.477Z,0.80
2022-09-13T02:39:55.535Z,0.75
2022-09-13T02:43:33.161Z,0.80
2022-09-13T02:46:44.290Z,0.77
2022-09-13T02:49:58.479Z,0.73
2022-09-13T02:53:16.238Z,0.90
2022-09-13T02:56:35.373Z,0.90
2022-09-13T02:59:37.574Z,0.67
2022-09-13T03:02:42.612Z,0.70
2022-09-13T03:05:45.075Z,0.80
2022-09-13T03:08:47.296Z,0.80
2022-09-13T03:12:09.316Z,0.90
2022-09-13T03:15:35.478Z,0.77
2022-09-13T03:19:16.996Z,0.80
2022-09-13T03:22:37.839Z,1.00
2022-09-13T03:25:45.957Z,0.80
2022-09-13T03:29:15.274Z,1.00
2022-09-13T03:32:35.291Z,0.80
2022-09-13T03:35:45.726Z,0.85
2022-09-13T03:38:59.299Z,1.00
2022-09-13T03:42:08.470Z,0.95
2022-09-13T03:45:13.251Z,1.05
2022-09-13T03:48:16.852Z,1.00
2022-09-13T03:51:19.735Z,1.00
2022-09-13T03:54:28.723Z,1.10
2022-09-13T03:57:30.901Z,1.10
2022-09-13T04:00:33.916Z,1.13
2022-09-13T04:03:37.195Z,0.90
2022-09-13T04:06:39.414Z,0.95
2022-09-13T04:09:41.674Z,0.90
2022-09-13T04:12:43.824Z,1.20
2022-09-13T04:15:45.914Z,0.90
2022-09-13T04:18:48.112Z,1.00
2022-09-13T04:21:51.817Z,1.08
2022-09-13T04:24:54.050Z,0.93
2022-09-13T04:27:58.266Z,1.00
2022-09-13T04:31:00.416Z,1.00
2022-09-13T04:45:40.757Z,1.00
2022-09-13T04:48:42.958Z,1.00
2022-09-13T04:51:45.121Z,1.10
2022-09-13T04:54:48.266Z,1.02
2022-09-13T04:57:54.421Z,1.10
2022-09-13T05:01:04.528Z,1.40
2022-09-13T05:04:07.652Z,1.30
2022-09-13T05:07:09.823Z,0.95
2022-09-13T05:10:15.162Z,1.10
2022-09-13T05:13:19.696Z,1.13
2022-09-13T05:16:23.270Z,1.38
2022-09-13T05:19:25.535Z,1.00
2022-09-13T05:22:27.647Z,1.20
2022-09-13T05:25:30.344Z,1.05
2022-09-13T05:28:35.256Z,1.33
2022-09-13T05:31:40.795Z,1.23
2022-09-13T05:34:43.053Z,1.10
2022-09-13T05:37:45.284Z,2.40
2022-09-13T05:40:47.793Z,2.45
2022-09-13T05:43:50.085Z,2.30
2022-09-13T05:46:52.223Z,2.60
2022-09-13T05:50:12.017Z,1.92
2022-09-13T05:53:16.705Z,1.98
2022-09-13T05:56:27.333Z,1.83
2022-09-13T05:59:29.755Z,1.67
2022-09-13T06:02:32.564Z,1.80
2022-09-13T06:05:34.794Z,1.52
2022-09-13T06:08:37.349Z,1.70
2022-09-13T06:11:39.774Z,1.80
2022-09-13T06:14:41.909Z,1.65
2022-09-13T06:17:44.008Z,1.27
2022-09-13T06:20:46.195Z,1.35
2022-09-13T06:23:53.468Z,1.60
2022-09-13T06:26:55.604Z,1.58
2022-09-13T06:29:57.740Z,1.50
2022-09-13T06:32:59.965Z,1.60
2022-09-13T06:36:03.759Z,1.50
2022-09-13T06:39:06.729Z,1.60
2022-09-13T06:42:08.831Z,1.60
2022-09-13T06:45:15.118Z,1.40
2022-09-13T06:48:17.947Z,1.48
2022-09-13T06:51:22.646Z,1.25
2022-09-13T06:54:24.799Z,1.63
2022-09-13T06:57:29.880Z,1.10
2022-09-13T07:00:32.168Z,1.50
2022-09-13T07:03:34.424Z,1.30
2022-09-13T07:06:39.105Z,1.50
2022-09-13T07:09:42.782Z,1.80
2022-09-13T07:12:44.900Z,1.33
2022-09-13T07:15:47.274Z,1.70
2022-09-13T07:18:56.939Z,1.35
2022-09-13T07:29:28.881Z,1.10
2022-09-13T07:32:33.052Z,1.60
2022-09-13T07:39:17.215Z,1.25
2022-09-13T07:42:22.447Z,1.00
2022-09-13T07:45:24.568Z,1.20
2022-09-13T07:48:33.242Z,1.27
2022-09-13T07:51:39.741Z,1.00
2022-09-13T07:54:42.131Z,1.30
2022-09-13T07:57:44.303Z,1.25
2022-09-13T08:00:46.673Z,1.23
2022-09-13T08:03:56.988Z,1.23
2022-09-13T08:06:59.249Z,1.20
2022-09-13T08:10:01.739Z,1.20
2022-09-13T08:13:03.944Z,1.13
2022-09-13T08:16:07.066Z,1.15
2022-09-13T08:19:13.639Z,1.42
2022-09-13T08:22:15.725Z,1.30
2022-09-13T08:25:17.881Z,0.95
2022-09-13T08:28:26.855Z,0.90
2022-09-13T08:31:30.435Z,1.35
2022-09-13T08:34:32.561Z,1.13
2022-09-13T08:37:35.254Z,0.90
2022-09-13T08:40:43.782Z,1.20
2022-09-13T08:44:10.213Z,1.48
2022-09-13T08:47:30.178Z,1.20
2022-09-13T08:50:36.367Z,1.20
2022-09-13T08:53:48.860Z,1.00
2022-09-13T08:57:17.294Z,0.90
2022-09-13T09:00:23.612Z,0.90
2022-09-13T09:04:02.913Z,0.90
2022-09-13T09:07:12.087Z,1.08
2022-09-13T09:10:24.507Z,1.08
2022-09-13T09:13:37.544Z,1.00
2022-09-13T09:16:53.296Z,1.20
2022-09-13T09:20:23.960Z,1.30
2022-09-13T09:23:46.012Z,0.90
2022-09-13T09:26:48.170Z,1.30
2022-09-13T09:29:54.365Z,1.00
2022-09-13T09:33:08.693Z,1.13
2022-09-13T09:36:20.001Z,1.08
2022-09-13T09:39:25.485Z,1.15
2022-09-13T09:42:30.428Z,1.20
2022-09-13T09:45:36.004Z,0.90
2022-09-13T09:48:48.411Z,1.08
2022-09-13T09:51:50.702Z,1.30
2022-09-13T09:54:52.816Z,0.95
2022-09-13T09:57:59.241Z,1.23
2022-09-13T10:01:02.026Z,1.05
2022-09-13T10:04:08.765Z,1.08
2022-09-13T10:07:31.199Z,1.33
2022-09-13T10:10:34.811Z,1.27
2022-09-13T10:13:38.444Z,1.08
2022-09-13T10:16:41.325Z,1.17
2022-09-13T10:20:17.237Z,1.15
2022-09-13T10:23:21.581Z,1.13
2022-09-13T10:26:25.843Z,1.15
2022-09-13T10:29:29.160Z,1.17
2022-09-13T10:32:31.642Z,1.23
2022-09-13T10:35:34.189Z,1.38
2022-09-13T10:38:41.860Z,1.30
2022-09-13T10:41:55.423Z,1.23
2022-09-13T10:48:16.974Z,1.10
2022-09-13T10:51:26.194Z,1.23
2022-09-13T10:54:28.819Z,1.33
2022-09-13T10:57:37.724Z,1.20
2022-09-13T11:00:45.514Z,1.20
2022-09-13T11:04:35.795Z,1.35
2022-09-13T11:07:44.055Z,1.33
2022-09-13T11:11:08.782Z,1.50
2022-09-13T11:14:22.794Z,1.40
2022-09-13T11:17:39.653Z,1.25
2022-09-13T11:21:22.660Z,1.30
2022-09-13T11:24:30.869Z,1.48
2022-09-13T11:27:51.700Z,1.25
2022-09-13T11:31:33.443Z,1.40
2022-09-13T11:34:41.556Z,1.20
2022-09-13T11:38:11.231Z,1.35
2022-09-13T11:41:32.456Z,1.50
2022-09-13T11:44:59.195Z,1.45
2022-09-13T11:48:35.742Z,1.60
2022-09-13T11:51:43.841Z,1.30
2022-09-13T11:55:18.373Z,1.50
2022-09-13T11:58:28.577Z,1.70
2022-09-13T12:01:37.154Z,1.50
2022-09-13T12:05:20.397Z,1.73
2022-09-13T12:11:41.948Z,1.40
2022-09-13T12:15:14.199Z,1.35
2022-09-13T12:18:31.082Z,1.40
2022-09-13T12:21:39.138Z,1.33
2022-09-13T12:24:48.369Z,1.70
2022-09-13T12:28:18.586Z,1.63
2022-09-13T12:31:24.348Z,1.42
2022-09-13T12:34:50.685Z,1.77
2022-09-13T12:38:31.671Z,1.50
2022-09-13T12:41:52.719Z,1.77
2022-09-13T12:45:00.726Z,1.77
2022-09-13T12:48:11.599Z,1.58
2022-09-13T12:51:32.729Z,2.00
2022-09-13T12:55:45.961Z,1.55
2022-09-13T12:59:12.037Z,1.75
2022-09-13T13:02:27.857Z,1.80
2022-09-13T13:05:48.939Z,1.95
2022-09-13T13:08:54.628Z,1.80
2022-09-13T13:11:58.651Z,1.60
2022-09-13T13:15:18.187Z,1.50
2022-09-13T13:18:45.096Z,1.77
2022-09-13T13:21:47.314Z,1.40
2022-09-13T13:24:49.577Z,1.65
2022-09-13T13:27:55.219Z,1.65
2022-09-13T13:30:59.160Z,1.58
2022-09-13T13:34:08.507Z,2.00
2022-09-13T13:37:10.616Z,2.00
2022-09-13T13:40:25.947Z,1.95
2022-09-13T13:43:34.270Z,1.90
2022-09-13T13:46:36.521Z,1.70
2022-09-13T13:49:41.554Z,2.00
2022-09-13T13:53:06.532Z,1.50
2022-09-13T13:56:23.366Z,1.92
2022-09-13T13:59:33.109Z,2.00
2022-09-13T14:02:51.118Z,1.67
2022-09-13T14:06:17.678Z,2.13
2022-09-13T14:09:49.726Z,1.70
2022-09-13T14:12:58.204Z,1.90
2022-09-13T14:16:09.251Z,2.20
2022-09-13T14:19:39.763Z,1.83
2022-09-13T14:22:42.487Z,1.73
2022-09-13T14:25:45.205Z,1.90
2022-09-13T14:28:47.651Z,2.03
2022-09-13T14:31:52.720Z,1.90
2022-09-13T14:35:02.112Z,2.58
2022-09-13T14:38:18.838Z,1.80
2022-09-13T14:41:22.867Z,2.17
2022-09-13T14:44:29.022Z,2.05
2022-09-13T14:47:55.648Z,1.83
2022-09-13T14:51:02.703Z,2.10
2022-09-13T14:54:17.133Z,2.13
2022-09-13T14:57:34.271Z,2.08
2022-09-13T15:01:02.729Z,1.95
2022-09-13T15:04:07.433Z,2.13
2022-09-13T15:07:20.982Z,2.00
2022-09-13T15:10:33.449Z,3.45
2022-09-13T15:13:37.437Z,4.18
2022-09-13T15:16:53.699Z,3.55
2022-09-13T15:20:06.097Z,3.50
2022-09-13T15:23:17.490Z,2.72
2022-09-13T15:26:25.755Z,2.60
2022-09-13T15:29:28.378Z,2.70
2022-09-13T15:32:40.425Z,2.08
2022-09-13T15:35:45.097Z,2.13
2022-09-13T15:39:08.465Z,2.30
2022-09-13T15:42:10.570Z,2.38
2022-09-13T15:45:13.098Z,1.83
2022-09-13T15:48:46.356Z,2.15
2022-09-13T15:51:54.503Z,2.55
2022-09-13T15:54:56.587Z,1.63
2022-09-13T15:57:58.714Z,2.30
2022-09-13T16:01:00.997Z,1.88
2022-09-13T16:04:05.113Z,2.25
2022-09-13T16:07:08.876Z,1.83
2022-09-13T16:10:17.055Z,1.60
2022-09-13T16:13:19.204Z,1.60
2022-09-13T16:16:21.482Z,1.83
2022-09-13T16:19:23.761Z,1.80
2022-09-13T16:22:25.909Z,1.50
2022-09-13T16:25:28.050Z,1.65
2022-09-13T16:28:30.127Z,1.70
2022-09-13T16:31:32.606Z,1.90
2022-09-13T16:34:34.922Z,1.80
2022-09-13T16:37:37.787Z,1.55
2022-09-13T16:40:41.407Z,1.50
2022-09-13T16:43:43.559Z,1.45
2022-09-13T16:46:46.039Z,1.75
2022-09-13T16:49:48.225Z,1.77
2022-09-13T16:52:50.387Z,1.33
2022-09-13T16:55:52.529Z,1.30
2022-09-13T16:58:54.733Z,2.00
2022-09-13T17:01:57.872Z,2.00
2022-09-13T17:05:00.205Z,1.83
2022-09-13T17:08:02.612Z,1.58
2022-09-13T17:11:13.201Z,1.27
2022-09-13T17:14:17.881Z,1.40
2022-09-13T17:17:20.385Z,1.30
2022-09-13T17:20:22.741Z,1.30
2022-09-13T17:23:25.575Z,1.20
2022-09-13T17:26:28.466Z,1.40
2022-09-13T17:29:32.658Z,1.42
2022-09-13T17:32:35.648Z,1.83
2022-09-13T17:35:37.876Z,1.60
2022-09-13T17:38:40.748Z,1.40
2022-09-13T17:41:42.859Z,1.20
2022-09-13T17:44:44.906Z,1.40
2022-09-13T17:47:47.595Z,1.10
2022-09-13T17:50:49.946Z,1.42
2022-09-13T17:53:54.518Z,1.10
2022-09-13T17:56:56.683Z,1.30
2022-09-13T17:59:59.034Z,1.50
2022-09-13T18:03:01.717Z,1.50
2022-09-13T18:06:05.677Z,1.40
2022-09-13T18:09:08.664Z,1.40
2022-09-13T18:12:12.163Z,1.35
2022-09-13T18:15:14.471Z,1.50
2022-09-13T18:18:16.844Z,1.58
2022-09-13T18:21:20.811Z,1.48
2022-09-13T18:24:23.005Z,1.60
2022-09-13T18:27:25.192Z,1.40
2022-09-13T18:30:27.405Z,1.40
2022-09-13T18:33:30.119Z,1.60
2022-09-13T18:36:33.657Z,1.73
2022-09-13T18:39:36.441Z,1.60
2022-09-13T18:42:40.892Z,1.77
2022-09-13T18:45:43.317Z,1.50
2022-09-13T18:48:48.436Z,1.55
2022-09-13T18:51:50.600Z,1.50
2022-09-13T18:54:52.737Z,1.73
2022-09-13T18:57:55.159Z,1.67
2022-09-13T19:01:04.408Z,1.80
2022-09-13T19:04:20.435Z,1.90
2022-09-13T19:07:23.420Z,1.88
2022-09-13T19:10:25.831Z,1.88
2022-09-13T19:13:31.647Z,1.90
2022-09-13T19:16:34.053Z,1.63
2022-09-13T19:19:36.178Z,2.22
2022-09-13T19:22:38.825Z,1.90
2022-09-13T19:25:41.779Z,1.88
2022-09-13T19:28:47.973Z,1.92
2022-09-13T19:31:52.224Z,1.90
2022-09-13T19:34:54.438Z,1.77
2022-09-13T19:37:56.605Z,2.25
2022-09-13T19:41:00.504Z,2.00
2022-09-13T19:44:03.789Z,2.00
2022-09-13T19:47:53.155Z,2.00
2022-09-13T19:50:29.623Z,2.00
2022-09-13T19:53:53.441Z,2.15
2022-09-13T19:56:55.675Z,1.90
2022-09-13T19:59:57.923Z,2.28
2022-09-13T20:03:00.030Z,2.03
2022-09-13T20:06:04.078Z,2.38
2022-09-13T20:09:06.767Z,2.03
2022-09-13T20:12:10.155Z,2.28
2022-09-13T20:15:12.356Z,1.80
2022-09-13T20:18:15.631Z,1.92
2022-09-13T20:21:18.417Z,2.75
2022-09-13T20:24:20.610Z,2.00
2022-09-13T20:27:22.799Z,2.50
2022-09-13T20:30:24.994Z,2.65
2022-09-13T20:33:27.561Z,2.25
2022-09-13T20:36:32.395Z,2.47
2022-09-13T20:39:34.522Z,2.50
2022-09-13T20:42:37.395Z,2.35
2022-09-13T20:45:39.590Z,2.10
2022-09-13T20:48:43.794Z,2.10
2022-09-13T20:51:47.080Z,2.72
2022-09-13T20:54:49.772Z,2.95
2022-09-13T20:57:51.887Z,2.70
2022-09-13T21:00:54.016Z,2.58
2022-09-13T21:03:56.718Z,2.53
2022-09-13T21:07:17.527Z,2.38
2022-09-13T21:10:19.959Z,3.10
2022-09-13T21:13:22.279Z,2.53
2022-09-13T21:16:26.566Z,2.45
2022-09-13T21:19:29.474Z,2.17
2022-09-13T21:22:31.977Z,2.80
2022-09-13T21:25:36.767Z,2.38
2022-09-13T21:28:40.527Z,2.13
2022-09-13T21:31:42.895Z,2.35
2022-09-13T21:34:45.620Z,2.50
2022-09-13T21:37:47.998Z,2.70
2022-09-13T21:40:55.953Z,2.40
2022-09-13T21:43:58.226Z,2.40
2022-09-13T21:47:00.351Z,2.72
2022-09-13T21:50:02.835Z,2.75
2022-09-13T21:53:04.990Z,2.42
2022-09-13T21:56:10.910Z,2.50
2022-09-13T21:59:15.433Z,2.78
2022-09-13T22:02:17.733Z,2.33
2022-09-13T22:05:19.863Z,2.53
2022-09-13T22:08:22.056Z,2.40
2022-09-13T22:11:26.895Z,2.50
2022-09-13T22:14:29.069Z,2.15
2022-09-13T22:17:31.242Z,2.38
2022-09-13T22:20:36.018Z,2.30
2022-09-13T22:23:38.577Z,1.98
2022-09-13T22:26:41.263Z,2.60
2022-09-13T22:29:43.530Z,2.58
2022-09-13T22:32:45.798Z,2.20
2022-09-13T22:35:58.592Z,2.53
2022-09-13T22:39:00.670Z,2.40
2022-09-13T22:42:02.811Z,1.95
2022-09-13T22:45:05.556Z,2.30
2022-09-13T22:48:12.315Z,2.35
2022-09-13T22:51:16.359Z,2.10
2022-09-13T22:54:19.496Z,2.15
2022-09-13T22:57:21.691Z,2.10
2022-09-13T23:00:23.861Z,1.95
2022-09-13T23:03:26.008Z,2.05
2022-09-13T23:06:29.738Z,2.63
2022-09-13T23:09:31.914Z,2.13
2022-09-13T23:12:34.094Z,2.00
2022-09-13T23:15:36.320Z,2.17
2022-09-13T23:18:38.471Z,2.15
2022-09-13T23:21:42.040Z,2.20
2022-09-13T23:24:44.166Z,2.00
2022-09-13T23:27:46.255Z,2.20
2022-09-13T23:30:48.408Z,2.25
2022-09-13T23:33:54.231Z,2.80
2022-09-13T23:36:56.442Z,1.90
2022-09-13T23:39:59.635Z,2.10
2022-09-13T23:43:02.302Z,2.20
2022-09-13T23:46:04.994Z,2.50
2022-09-13T23:49:07.140Z,2.22
2022-09-13T23:52:09.321Z,1.95
2022-09-13T23:55:14.294Z,2.20
2022-09-13T23:58:16.450Z,2.42
